Terminal Aerodrome Forecast
Issued by NWS Kansas City/Pleasant Hill, MO

Home | Current Version | Previous Version | Text Only | Print | Product List | Glossary On
Versions: 1 2 3 4 5 6 7 8 9 10 11 12 13 14 15 16 17
353
FTUS43 KEAX 240520
TAFMCI
TAF
KMCI 240520Z 2406/2506 17015G25KT P6SM SCT250 WS020/18045KT
     FM241200 18014G22KT P6SM VCSH BKN200
     FM241800 18012KT P6SM VCTS BKN025CB
     FM250000 15010KT P6SM VCTS BKN015CB=

USA.gov is the U.S. government's official web portal to all federal, state and local government web resources and services.